sensor_id;sensor_type;location;lat;lon;timestamp;temperature;humidity
15483;DHT22;7843;50.330;7.312;2022-08-21T00:02:21;16.10;88.20
15483;DHT22;7843;50.330;7.312;2022-08-21T00:04:48;16.10;88.20
15483;DHT22;7843;50.330;7.312;2022-08-21T00:07:15;16.00;88.50
15483;DHT22;7843;50.330;7.312;2022-08-21T00:09:42;16.00;88.70
15483;DHT22;7843;50.330;7.312;2022-08-21T00:12:09;15.90;88.80
15483;DHT22;7843;50.330;7.312;2022-08-21T00:14:36;15.90;88.90
15483;DHT22;7843;50.330;7.312;2022-08-21T00:17:04;16.00;88.70
15483;DHT22;7843;50.330;7.312;2022-08-21T00:19:32;16.00;88.60
15483;DHT22;7843;50.330;7.312;2022-08-21T00:21:59;16.00;88.70
15483;DHT22;7843;50.330;7.312;2022-08-21T00:24:26;15.90;88.70
15483;DHT22;7843;50.330;7.312;2022-08-21T00:26:53;16.00;88.50
15483;DHT22;7843;50.330;7.312;2022-08-21T00:29:20;16.10;88.20
15483;DHT22;7843;50.330;7.312;2022-08-21T00:31:47;16.00;88.20
15483;DHT22;7843;50.330;7.312;2022-08-21T00:34:14;15.90;88.50
15483;DHT22;7843;50.330;7.312;2022-08-21T00:36:41;15.90;88.60
15483;DHT22;7843;50.330;7.312;2022-08-21T00:39:08;15.90;88.50
15483;DHT22;7843;50.330;7.312;2022-08-21T00:44:10;15.80;89.10
15483;DHT22;7843;50.330;7.312;2022-08-21T00:46:38;15.80;88.90
15483;DHT22;7843;50.330;7.312;2022-08-21T00:49:06;15.80;89.00
15483;DHT22;7843;50.330;7.312;2022-08-21T00:51:38;15.70;89.20
15483;DHT22;7843;50.330;7.312;2022-08-21T00:54:07;15.60;89.60
15483;DHT22;7843;50.330;7.312;2022-08-21T00:56:34;15.50;89.70
15483;DHT22;7843;50.330;7.312;2022-08-21T00:59:01;15.50;89.90
15483;DHT22;7843;50.330;7.312;2022-08-21T01:01:28;15.40;90.30
15483;DHT22;7843;50.330;7.312;2022-08-21T01:03:55;15.30;90.60
15483;DHT22;7843;50.330;7.312;2022-08-21T01:06:22;15.10;90.90
15483;DHT22;7843;50.330;7.312;2022-08-21T01:08:48;15.10;91.30
15483;DHT22;7843;50.330;7.312;2022-08-21T01:11:16;15.00;91.60
15483;DHT22;7843;50.330;7.312;2022-08-21T01:13:43;14.90;91.70
15483;DHT22;7843;50.330;7.312;2022-08-21T01:18:43;14.80;91.90
15483;DHT22;7843;50.330;7.312;2022-08-21T01:21:16;14.80;92.20
15483;DHT22;7843;50.330;7.312;2022-08-21T01:23:46;14.70;92.40
15483;DHT22;7843;50.330;7.312;2022-08-21T01:26:15;14.80;92.50
15483;DHT22;7843;50.330;7.312;2022-08-21T01:28:52;14.70;92.50
15483;DHT22;7843;50.330;7.312;2022-08-21T01:31:22;14.70;92.60
15483;DHT22;7843;50.330;7.312;2022-08-21T01:33:49;14.70;92.80
15483;DHT22;7843;50.330;7.312;2022-08-21T01:36:16;14.60;92.80
15483;DHT22;7843;50.330;7.312;2022-08-21T01:38:43;14.60;92.80
15483;DHT22;7843;50.330;7.312;2022-08-21T01:41:10;14.50;92.90
15483;DHT22;7843;50.330;7.312;2022-08-21T01:43:37;14.50;93.10
15483;DHT22;7843;50.330;7.312;2022-08-21T01:46:04;14.50;93.30
15483;DHT22;7843;50.330;7.312;2022-08-21T01:48:31;14.50;93.10
15483;DHT22;7843;50.330;7.312;2022-08-21T01:50:58;14.40;93.10
15483;DHT22;7843;50.330;7.312;2022-08-21T01:53:25;14.40;93.50
15483;DHT22;7843;50.330;7.312;2022-08-21T01:55:52;14.40;93.30
15483;DHT22;7843;50.330;7.312;2022-08-21T01:58:19;14.30;92.90
15483;DHT22;7843;50.330;7.312;2022-08-21T02:00:46;14.30;93.10
15483;DHT22;7843;50.330;7.312;2022-08-21T02:03:12;14.20;93.40
15483;DHT22;7843;50.330;7.312;2022-08-21T02:05:39;14.20;93.00
15483;DHT22;7843;50.330;7.312;2022-08-21T02:08:06;14.10;92.90
15483;DHT22;7843;50.330;7.312;2022-08-21T02:10:34;14.10;93.10
15483;DHT22;7843;50.330;7.312;2022-08-21T02:13:01;14.00;93.20
15483;DHT22;7843;50.330;7.312;2022-08-21T02:15:29;14.00;93.50
15483;DHT22;7843;50.330;7.312;2022-08-21T02:17:59;14.00;93.60
15483;DHT22;7843;50.330;7.312;2022-08-21T02:20:36;14.10;93.50
15483;DHT22;7843;50.330;7.312;2022-08-21T02:23:04;14.10;93.50
15483;DHT22;7843;50.330;7.312;2022-08-21T02:25:31;14.00;93.80
15483;DHT22;7843;50.330;7.312;2022-08-21T02:27:59;14.00;94.00
15483;DHT22;7843;50.330;7.312;2022-08-21T02:30:32;13.90;94.10
15483;DHT22;7843;50.330;7.312;2022-08-21T02:33:00;13.90;93.80
15483;DHT22;7843;50.330;7.312;2022-08-21T02:35:27;13.90;93.90
15483;DHT22;7843;50.330;7.312;2022-08-21T02:37:57;13.90;93.80
15483;DHT22;7843;50.330;7.312;2022-08-21T02:40:28;13.80;94.00
15483;DHT22;7843;50.330;7.312;2022-08-21T02:42:55;13.80;93.90
15483;DHT22;7843;50.330;7.312;2022-08-21T02:45:22;13.80;93.90
15483;DHT22;7843;50.330;7.312;2022-08-21T02:47:55;13.80;94.50
15483;DHT22;7843;50.330;7.312;2022-08-21T02:50:29;13.90;94.10
15483;DHT22;7843;50.330;7.312;2022-08-21T02:52:56;13.90;94.20
15483;DHT22;7843;50.330;7.312;2022-08-21T02:55:25;13.80;94.20
15483;DHT22;7843;50.330;7.312;2022-08-21T02:57:54;13.80;94.30
15483;DHT22;7843;50.330;7.312;2022-08-21T03:00:22;13.80;94.30
15483;DHT22;7843;50.330;7.312;2022-08-21T03:02:50;13.70;94.80
15483;DHT22;7843;50.330;7.312;2022-08-21T03:05:17;13.70;95.10
15483;DHT22;7843;50.330;7.312;2022-08-21T03:07:45;13.60;95.30
15483;DHT22;7843;50.330;7.312;2022-08-21T03:10:14;13.60;95.30
15483;DHT22;7843;50.330;7.312;2022-08-21T03:12:41;13.60;95.50
15483;DHT22;7843;50.330;7.312;2022-08-21T03:15:11;13.60;95.70
15483;DHT22;7843;50.330;7.312;2022-08-21T03:17:39;13.50;95.80
15483;DHT22;7843;50.330;7.312;2022-08-21T03:20:07;13.60;95.80
15483;DHT22;7843;50.330;7.312;2022-08-21T03:22:34;13.60;95.80
15483;DHT22;7843;50.330;7.312;2022-08-21T03:25:02;13.60;95.70
15483;DHT22;7843;50.330;7.312;2022-08-21T03:27:29;13.50;95.70
15483;DHT22;7843;50.330;7.312;2022-08-21T03:29:57;13.40;96.20
15483;DHT22;7843;50.330;7.312;2022-08-21T03:32:24;13.50;96.30
15483;DHT22;7843;50.330;7.312;2022-08-21T03:34:51;13.40;96.70
15483;DHT22;7843;50.330;7.312;2022-08-21T03:37:18;13.30;97.00
15483;DHT22;7843;50.330;7.312;2022-08-21T03:39:45;13.30;97.00
15483;DHT22;7843;50.330;7.312;2022-08-21T03:42:11;13.30;97.00
15483;DHT22;7843;50.330;7.312;2022-08-21T03:44:38;13.20;97.10
15483;DHT22;7843;50.330;7.312;2022-08-21T03:47:06;13.20;97.10
15483;DHT22;7843;50.330;7.312;2022-08-21T03:49:33;13.10;97.50
15483;DHT22;7843;50.330;7.312;2022-08-21T03:52:00;13.10;97.70
15483;DHT22;7843;50.330;7.312;2022-08-21T03:54:27;13.20;97.40
15483;DHT22;7843;50.330;7.312;2022-08-21T03:56:54;13.20;97.00
15483;DHT22;7843;50.330;7.312;2022-08-21T03:59:21;13.10;97.00
15483;DHT22;7843;50.330;7.312;2022-08-21T04:01:56;13.10;97.20
15483;DHT22;7843;50.330;7.312;2022-08-21T04:04:23;13.00;97.20
15483;DHT22;7843;50.330;7.312;2022-08-21T04:06:50;13.00;97.60
15483;DHT22;7843;50.330;7.312;2022-08-21T04:09:18;12.90;97.90
15483;DHT22;7843;50.330;7.312;2022-08-21T04:11:45;12.90;98.00
15483;DHT22;7843;50.330;7.312;2022-08-21T04:14:13;12.90;98.00
15483;DHT22;7843;50.330;7.312;2022-08-21T04:16:41;12.90;97.80
15483;DHT22;7843;50.330;7.312;2022-08-21T04:19:09;12.90;98.00
15483;DHT22;7843;50.330;7.312;2022-08-21T04:21:37;12.90;98.20
15483;DHT22;7843;50.330;7.312;2022-08-21T04:24:05;12.90;98.30
15483;DHT22;7843;50.330;7.312;2022-08-21T04:26:32;12.90;98.30
15483;DHT22;7843;50.330;7.312;2022-08-21T04:29:01;12.90;98.20
15483;DHT22;7843;50.330;7.312;2022-08-21T04:31:28;12.90;98.40
15483;DHT22;7843;50.330;7.312;2022-08-21T04:33:55;12.90;98.40
15483;DHT22;7843;50.330;7.312;2022-08-21T04:36:23;12.90;98.30
15483;DHT22;7843;50.330;7.312;2022-08-21T04:38:49;12.90;98.10
15483;DHT22;7843;50.330;7.312;2022-08-21T04:41:17;12.90;98.00
15483;DHT22;7843;50.330;7.312;2022-08-21T04:43:43;12.80;98.40
15483;DHT22;7843;50.330;7.312;2022-08-21T04:46:10;12.80;98.50
15483;DHT22;7843;50.330;7.312;2022-08-21T04:48:37;12.80;98.50
15483;DHT22;7843;50.330;7.312;2022-08-21T04:51:13;12.70;98.60
15483;DHT22;7843;50.330;7.312;2022-08-21T04:56:14;12.70;98.80
15483;DHT22;7843;50.330;7.312;2022-08-21T04:58:42;12.70;98.80
15483;DHT22;7843;50.330;7.312;2022-08-21T05:01:13;12.80;98.80
15483;DHT22;7843;50.330;7.312;2022-08-21T05:03:42;12.80;98.90
15483;DHT22;7843;50.330;7.312;2022-08-21T05:06:10;12.90;98.90
15483;DHT22;7843;50.330;7.312;2022-08-21T05:08:38;12.90;98.40
15483;DHT22;7843;50.330;7.312;2022-08-21T05:11:06;13.00;98.50
15483;DHT22;7843;50.330;7.312;2022-08-21T05:13:33;13.00;98.30
15483;DHT22;7843;50.330;7.312;2022-08-21T05:16:00;13.10;98.00
15483;DHT22;7843;50.330;7.312;2022-08-21T05:18:26;13.20;97.80
15483;DHT22;7843;50.330;7.312;2022-08-21T05:20:53;13.20;97.50
15483;DHT22;7843;50.330;7.312;2022-08-21T05:23:20;13.30;97.30
15483;DHT22;7843;50.330;7.312;2022-08-21T05:25:47;13.40;97.40
15483;DHT22;7843;50.330;7.312;2022-08-21T05:28:14;13.40;97.40
15483;DHT22;7843;50.330;7.312;2022-08-21T05:30:40;13.40;97.30
15483;DHT22;7843;50.330;7.312;2022-08-21T05:33:07;13.50;97.00
15483;DHT22;7843;50.330;7.312;2022-08-21T05:35:35;13.60;96.70
15483;DHT22;7843;50.330;7.312;2022-08-21T05:38:03;13.70;96.60
15483;DHT22;7843;50.330;7.312;2022-08-21T05:40:30;13.70;96.60
15483;DHT22;7843;50.330;7.312;2022-08-21T05:42:57;13.70;96.30
15483;DHT22;7843;50.330;7.312;2022-08-21T05:45:34;13.80;96.20
15483;DHT22;7843;50.330;7.312;2022-08-21T05:48:08;13.90;96.10
15483;DHT22;7843;50.330;7.312;2022-08-21T05:50:36;14.00;96.00
15483;DHT22;7843;50.330;7.312;2022-08-21T05:53:05;14.10;95.90
15483;DHT22;7843;50.330;7.312;2022-08-21T05:55:32;14.20;95.50
15483;DHT22;7843;50.330;7.312;2022-08-21T05:57:58;14.20;95.40
15483;DHT22;7843;50.330;7.312;2022-08-21T06:00:25;14.30;94.90
15483;DHT22;7843;50.330;7.312;2022-08-21T06:02:52;14.50;94.30
15483;DHT22;7843;50.330;7.312;2022-08-21T06:05:21;14.50;94.10
15483;DHT22;7843;50.330;7.312;2022-08-21T06:07:47;14.60;94.10
15483;DHT22;7843;50.330;7.312;2022-08-21T06:10:14;14.60;94.10
15483;DHT22;7843;50.330;7.312;2022-08-21T06:12:41;14.70;94.10
15483;DHT22;7843;50.330;7.312;2022-08-21T06:15:08;14.80;93.90
15483;DHT22;7843;50.330;7.312;2022-08-21T06:17:35;14.90;93.80
15483;DHT22;7843;50.330;7.312;2022-08-21T06:20:03;15.00;93.50
15483;DHT22;7843;50.330;7.312;2022-08-21T06:22:30;15.10;93.10
15483;DHT22;7843;50.330;7.312;2022-08-21T06:24:56;15.20;93.50
15483;DHT22;7843;50.330;7.312;2022-08-21T06:27:23;15.30;92.90
15483;DHT22;7843;50.330;7.312;2022-08-21T06:29:52;15.40;92.60
15483;DHT22;7843;50.330;7.312;2022-08-21T06:32:18;15.50;92.10
15483;DHT22;7843;50.330;7.312;2022-08-21T06:34:45;15.60;91.90
15483;DHT22;7843;50.330;7.312;2022-08-21T06:37:12;15.70;92.10
15483;DHT22;7843;50.330;7.312;2022-08-21T06:39:38;15.70;91.50
15483;DHT22;7843;50.330;7.312;2022-08-21T06:42:14;15.70;91.20
15483;DHT22;7843;50.330;7.312;2022-08-21T06:44:41;15.80;91.30
15483;DHT22;7843;50.330;7.312;2022-08-21T06:47:08;15.90;91.00
15483;DHT22;7843;50.330;7.312;2022-08-21T06:49:35;16.00;90.80
15483;DHT22;7843;50.330;7.312;2022-08-21T06:52:02;16.20;90.70
15483;DHT22;7843;50.330;7.312;2022-08-21T06:54:29;16.20;90.50
15483;DHT22;7843;50.330;7.312;2022-08-21T06:56:57;16.30;90.10
15483;DHT22;7843;50.330;7.312;2022-08-21T06:59:24;16.30;89.80
15483;DHT22;7843;50.330;7.312;2022-08-21T07:01:51;16.40;89.80
15483;DHT22;7843;50.330;7.312;2022-08-21T07:04:17;16.50;89.50
15483;DHT22;7843;50.330;7.312;2022-08-21T07:06:44;16.60;89.70
15483;DHT22;7843;50.330;7.312;2022-08-21T07:09:11;16.80;89.40
15483;DHT22;7843;50.330;7.312;2022-08-21T07:11:38;17.00;89.10
15483;DHT22;7843;50.330;7.312;2022-08-21T07:14:05;17.10;88.80
15483;DHT22;7843;50.330;7.312;2022-08-21T07:16:32;17.30;88.40
15483;DHT22;7843;50.330;7.312;2022-08-21T07:18:58;17.40;88.50
15483;DHT22;7843;50.330;7.312;2022-08-21T07:21:25;17.50;87.90
15483;DHT22;7843;50.330;7.312;2022-08-21T07:23:52;17.70;88.00
15483;DHT22;7843;50.330;7.312;2022-08-21T07:26:21;17.80;87.40
15483;DHT22;7843;50.330;7.312;2022-08-21T07:28:49;17.90;87.10
15483;DHT22;7843;50.330;7.312;2022-08-21T07:31:23;18.00;87.10
15483;DHT22;7843;50.330;7.312;2022-08-21T07:33:50;18.10;87.30
15483;DHT22;7843;50.330;7.312;2022-08-21T07:36:17;18.30;86.60
15483;DHT22;7843;50.330;7.312;2022-08-21T07:38:44;18.40;86.40
15483;DHT22;7843;50.330;7.312;2022-08-21T07:41:17;18.60;86.40
15483;DHT22;7843;50.330;7.312;2022-08-21T07:43:45;18.70;85.70
15483;DHT22;7843;50.330;7.312;2022-08-21T07:46:13;18.80;85.20
15483;DHT22;7843;50.330;7.312;2022-08-21T07:48:39;18.90;85.00
15483;DHT22;7843;50.330;7.312;2022-08-21T07:51:08;19.00;84.90
15483;DHT22;7843;50.330;7.312;2022-08-21T07:53:36;19.20;84.70
15483;DHT22;7843;50.330;7.312;2022-08-21T07:56:04;19.40;84.10
15483;DHT22;7843;50.330;7.312;2022-08-21T07:58:31;19.50;83.50
15483;DHT22;7843;50.330;7.312;2022-08-21T08:00:58;19.60;82.80
15483;DHT22;7843;50.330;7.312;2022-08-21T08:03:26;19.70;83.00
15483;DHT22;7843;50.330;7.312;2022-08-21T08:05:53;19.80;82.30
15483;DHT22;7843;50.330;7.312;2022-08-21T08:08:19;20.00;82.00
15483;DHT22;7843;50.330;7.312;2022-08-21T08:10:46;20.00;82.20
15483;DHT22;7843;50.330;7.312;2022-08-21T08:13:13;20.20;82.10
15483;DHT22;7843;50.330;7.312;2022-08-21T08:15:40;20.30;82.00
15483;DHT22;7843;50.330;7.312;2022-08-21T08:18:06;20.40;80.90
15483;DHT22;7843;50.330;7.312;2022-08-21T08:20:33;20.50;81.20
15483;DHT22;7843;50.330;7.312;2022-08-21T08:23:00;20.60;80.80
15483;DHT22;7843;50.330;7.312;2022-08-21T08:25:27;20.80;79.90
15483;DHT22;7843;50.330;7.312;2022-08-21T08:27:54;20.80;79.70
15483;DHT22;7843;50.330;7.312;2022-08-21T08:30:21;20.90;79.10
15483;DHT22;7843;50.330;7.312;2022-08-21T08:32:49;21.00;79.80
15483;DHT22;7843;50.330;7.312;2022-08-21T08:35:16;21.20;78.90
15483;DHT22;7843;50.330;7.312;2022-08-21T08:37:43;21.30;77.80
15483;DHT22;7843;50.330;7.312;2022-08-21T08:40:19;21.50;77.10
15483;DHT22;7843;50.330;7.312;2022-08-21T08:42:48;21.60;76.30
15483;DHT22;7843;50.330;7.312;2022-08-21T08:45:20;21.70;76.20
15483;DHT22;7843;50.330;7.312;2022-08-21T08:47:56;21.80;76.10
15483;DHT22;7843;50.330;7.312;2022-08-21T08:50:33;22.00;75.90
15483;DHT22;7843;50.330;7.312;2022-08-21T08:53:07;22.00;74.80
15483;DHT22;7843;50.330;7.312;2022-08-21T08:58:08;22.30;74.00
15483;DHT22;7843;50.330;7.312;2022-08-21T09:00:35;22.50;73.40
15483;DHT22;7843;50.330;7.312;2022-08-21T09:03:04;22.60;71.70
15483;DHT22;7843;50.330;7.312;2022-08-21T09:05:45;22.60;70.90
15483;DHT22;7843;50.330;7.312;2022-08-21T09:11:01;22.80;69.70
15483;DHT22;7843;50.330;7.312;2022-08-21T09:13:52;22.90;69.80
15483;DHT22;7843;50.330;7.312;2022-08-21T09:19:19;23.00;68.10
15483;DHT22;7843;50.330;7.312;2022-08-21T09:27:14;23.60;67.50
15483;DHT22;7843;50.330;7.312;2022-08-21T09:29:44;23.70;67.20
15483;DHT22;7843;50.330;7.312;2022-08-21T09:32:23;23.90;67.70
15483;DHT22;7843;50.330;7.312;2022-08-21T09:35:13;24.00;66.70
15483;DHT22;7843;50.330;7.312;2022-08-21T09:43:22;24.50;65.80
15483;DHT22;7843;50.330;7.312;2022-08-21T09:46:19;24.50;65.20
15483;DHT22;7843;50.330;7.312;2022-08-21T09:48:49;24.50;66.20
15483;DHT22;7843;50.330;7.312;2022-08-21T09:51:26;24.60;64.80
15483;DHT22;7843;50.330;7.312;2022-08-21T09:56:55;24.80;63.40
15483;DHT22;7843;50.330;7.312;2022-08-21T09:59:42;24.70;63.90
15483;DHT22;7843;50.330;7.312;2022-08-21T10:02:26;24.80;64.40
15483;DHT22;7843;50.330;7.312;2022-08-21T10:04:58;25.10;64.10
15483;DHT22;7843;50.330;7.312;2022-08-21T10:07:27;25.30;62.80
15483;DHT22;7843;50.330;7.312;2022-08-21T10:10:29;25.30;62.80
15483;DHT22;7843;50.330;7.312;2022-08-21T10:13:23;25.60;62.70
15483;DHT22;7843;50.330;7.312;2022-08-21T10:16:29;25.80;61.70
15483;DHT22;7843;50.330;7.312;2022-08-21T10:19:22;26.00;61.90
15483;DHT22;7843;50.330;7.312;2022-08-21T10:25:00;26.40;61.40
15483;DHT22;7843;50.330;7.312;2022-08-21T10:33:13;26.50;60.60
15483;DHT22;7843;50.330;7.312;2022-08-21T10:38:40;26.70;60.20
15483;DHT22;7843;50.330;7.312;2022-08-21T10:41:49;26.60;60.10
15483;DHT22;7843;50.330;7.312;2022-08-21T10:44:22;26.60;60.00
15483;DHT22;7843;50.330;7.312;2022-08-21T10:52:52;26.90;58.30
15483;DHT22;7843;50.330;7.312;2022-08-21T10:55:31;26.90;58.80
15483;DHT22;7843;50.330;7.312;2022-08-21T10:58:19;27.00;58.10
15483;DHT22;7843;50.330;7.312;2022-08-21T11:00:49;27.10;57.40
15483;DHT22;7843;50.330;7.312;2022-08-21T11:03:35;27.10;57.40
15483;DHT22;7843;50.330;7.312;2022-08-21T11:06:16;26.90;58.00
15483;DHT22;7843;50.330;7.312;2022-08-21T11:08:48;27.10;57.70
15483;DHT22;7843;50.330;7.312;2022-08-21T11:11:26;27.10;57.60
15483;DHT22;7843;50.330;7.312;2022-08-21T11:14:31;26.90;57.00
15483;DHT22;7843;50.330;7.312;2022-08-21T11:17:12;26.60;56.90
15483;DHT22;7843;50.330;7.312;2022-08-21T11:19:59;26.50;57.30
15483;DHT22;7843;50.330;7.312;2022-08-21T11:22:40;26.50;57.50
15483;DHT22;7843;50.330;7.312;2022-08-21T11:25:39;26.80;57.70
15483;DHT22;7843;50.330;7.312;2022-08-21T11:28:23;27.20;57.80
15483;DHT22;7843;50.330;7.312;2022-08-21T11:33:37;27.30;55.80
15483;DHT22;7843;50.330;7.312;2022-08-21T11:36:15;27.00;56.40
15483;DHT22;7843;50.330;7.312;2022-08-21T11:41:46;26.30;58.10
15483;DHT22;7843;50.330;7.312;2022-08-21T11:47:10;26.50;58.20
15483;DHT22;7843;50.330;7.312;2022-08-21T11:52:28;27.40;57.10
15483;DHT22;7843;50.330;7.312;2022-08-21T11:55:02;27.90;56.60
15483;DHT22;7843;50.330;7.312;2022-08-21T11:57:52;28.40;55.80
15483;DHT22;7843;50.330;7.312;2022-08-21T12:00:27;28.60;54.00
15483;DHT22;7843;50.330;7.312;2022-08-21T12:02:59;28.70;54.40
15483;DHT22;7843;50.330;7.312;2022-08-21T12:05:36;28.60;53.20
15483;DHT22;7843;50.330;7.312;2022-08-21T12:08:12;28.10;53.70
15483;DHT22;7843;50.330;7.312;2022-08-21T12:10:42;27.90;55.70
15483;DHT22;7843;50.330;7.312;2022-08-21T12:13:24;28.20;56.00
15483;DHT22;7843;50.330;7.312;2022-08-21T12:15:52;28.10;53.70
15483;DHT22;7843;50.330;7.312;2022-08-21T12:18:30;27.80;54.90
15483;DHT22;7843;50.330;7.312;2022-08-21T12:20:58;27.90;54.30
15483;DHT22;7843;50.330;7.312;2022-08-21T12:23:35;28.10;54.70
15483;DHT22;7843;50.330;7.312;2022-08-21T12:28:40;29.20;52.90
15483;DHT22;7843;50.330;7.312;2022-08-21T12:31:24;29.70;52.30
15483;DHT22;7843;50.330;7.312;2022-08-21T12:34:02;30.30;51.40
15483;DHT22;7843;50.330;7.312;2022-08-21T12:36:56;31.00;49.60
15483;DHT22;7843;50.330;7.312;2022-08-21T12:39:26;31.60;49.80
15483;DHT22;7843;50.330;7.312;2022-08-21T12:42:00;31.60;48.30
15483;DHT22;7843;50.330;7.312;2022-08-21T12:44:42;32.00;48.50
15483;DHT22;7843;50.330;7.312;2022-08-21T12:47:16;32.50;47.30
15483;DHT22;7843;50.330;7.312;2022-08-21T12:52:30;33.10;46.30
15483;DHT22;7843;50.330;7.312;2022-08-21T12:54:58;33.30;46.50
15483;DHT22;7843;50.330;7.312;2022-08-21T12:57:27;33.40;46.20
15483;DHT22;7843;50.330;7.312;2022-08-21T13:00:00;32.60;46.20
15483;DHT22;7843;50.330;7.312;2022-08-21T13:02:37;31.60;47.00
15483;DHT22;7843;50.330;7.312;2022-08-21T13:05:07;31.00;48.00
15483;DHT22;7843;50.330;7.312;2022-08-21T13:07:38;30.50;49.30
15483;DHT22;7843;50.330;7.312;2022-08-21T13:10:14;30.00;50.60
15483;DHT22;7843;50.330;7.312;2022-08-21T13:12:43;29.60;50.70
15483;DHT22;7843;50.330;7.312;2022-08-21T13:15:11;29.50;50.80
15483;DHT22;7843;50.330;7.312;2022-08-21T13:17:47;29.40;51.10
15483;DHT22;7843;50.330;7.312;2022-08-21T13:20:23;29.30;51.40
15483;DHT22;7843;50.330;7.312;2022-08-21T13:22:51;29.30;51.60
15483;DHT22;7843;50.330;7.312;2022-08-21T13:25:20;30.00;50.90
15483;DHT22;7843;50.330;7.312;2022-08-21T13:28:05;31.00;49.10
15483;DHT22;7843;50.330;7.312;2022-08-21T13:30:33;31.20;48.70
15483;DHT22;7843;50.330;7.312;2022-08-21T13:33:02;31.40;48.40
15483;DHT22;7843;50.330;7.312;2022-08-21T13:38:16;30.70;47.90
15483;DHT22;7843;50.330;7.312;2022-08-21T13:40:53;30.60;49.00
15483;DHT22;7843;50.330;7.312;2022-08-21T13:43:27;31.10;48.20
15483;DHT22;7843;50.330;7.312;2022-08-21T13:45:55;30.90;47.90
15483;DHT22;7843;50.330;7.312;2022-08-21T13:48:25;30.50;48.60
15483;DHT22;7843;50.330;7.312;2022-08-21T13:50:52;30.10;49.10
15483;DHT22;7843;50.330;7.312;2022-08-21T13:53:26;29.60;49.90
15483;DHT22;7843;50.330;7.312;2022-08-21T13:55:53;29.50;50.20
15483;DHT22;7843;50.330;7.312;2022-08-21T13:58:31;29.10;50.40
15483;DHT22;7843;50.330;7.312;2022-08-21T14:01:00;28.90;50.70
15483;DHT22;7843;50.330;7.312;2022-08-21T14:03:37;28.90;51.70
15483;DHT22;7843;50.330;7.312;2022-08-21T14:06:23;29.40;50.80
15483;DHT22;7843;50.330;7.312;2022-08-21T14:09:03;30.20;48.90
15483;DHT22;7843;50.330;7.312;2022-08-21T14:11:35;31.30;48.00
15483;DHT22;7843;50.330;7.312;2022-08-21T14:14:20;32.20;46.00
15483;DHT22;7843;50.330;7.312;2022-08-21T14:16:59;32.30;45.80
15483;DHT22;7843;50.330;7.312;2022-08-21T14:19:44;33.00;45.60
15483;DHT22;7843;50.330;7.312;2022-08-21T14:22:36;33.70;45.30
15483;DHT22;7843;50.330;7.312;2022-08-21T14:25:27;34.20;43.80
15483;DHT22;7843;50.330;7.312;2022-08-21T14:30:35;34.40;43.50
15483;DHT22;7843;50.330;7.312;2022-08-21T14:33:07;34.00;43.50
15483;DHT22;7843;50.330;7.312;2022-08-21T14:35:35;33.00;43.80
15483;DHT22;7843;50.330;7.312;2022-08-21T14:38:10;32.00;45.90
15483;DHT22;7843;50.330;7.312;2022-08-21T14:40:37;31.30;46.70
15483;DHT22;7843;50.330;7.312;2022-08-21T14:43:04;30.70;47.70
15483;DHT22;7843;50.330;7.312;2022-08-21T14:45:31;30.30;48.00
15483;DHT22;7843;50.330;7.312;2022-08-21T14:47:58;29.90;49.30
15483;DHT22;7843;50.330;7.312;2022-08-21T14:50:26;29.90;49.30
15483;DHT22;7843;50.330;7.312;2022-08-21T14:52:52;30.70;48.40
15483;DHT22;7843;50.330;7.312;2022-08-21T14:55:19;31.60;47.00
15483;DHT22;7843;50.330;7.312;2022-08-21T14:57:51;32.20;45.80
15483;DHT22;7843;50.330;7.312;2022-08-21T15:00:21;32.10;46.80
15483;DHT22;7843;50.330;7.312;2022-08-21T15:02:49;31.70;47.00
15483;DHT22;7843;50.330;7.312;2022-08-21T15:05:17;32.00;46.30
15483;DHT22;7843;50.330;7.312;2022-08-21T15:07:44;32.50;45.20
15483;DHT22;7843;50.330;7.312;2022-08-21T15:10:11;32.60;45.20
15483;DHT22;7843;50.330;7.312;2022-08-21T15:12:38;32.70;45.70
15483;DHT22;7843;50.330;7.312;2022-08-21T15:15:06;33.00;44.70
15483;DHT22;7843;50.330;7.312;2022-08-21T15:17:33;33.00;44.20
15483;DHT22;7843;50.330;7.312;2022-08-21T15:20:00;32.90;44.50
15483;DHT22;7843;50.330;7.312;2022-08-21T15:22:27;32.80;45.40
15483;DHT22;7843;50.330;7.312;2022-08-21T15:24:54;32.90;44.90
15483;DHT22;7843;50.330;7.312;2022-08-21T15:27:21;32.60;45.50
15483;DHT22;7843;50.330;7.312;2022-08-21T15:29:47;32.20;45.40
15483;DHT22;7843;50.330;7.312;2022-08-21T15:32:27;32.10;46.00
15483;DHT22;7843;50.330;7.312;2022-08-21T15:34:56;32.00;46.00
15483;DHT22;7843;50.330;7.312;2022-08-21T15:37:24;31.60;45.10
15483;DHT22;7843;50.330;7.312;2022-08-21T15:39:52;31.40;45.50
15483;DHT22;7843;50.330;7.312;2022-08-21T15:42:19;31.20;46.90
15483;DHT22;7843;50.330;7.312;2022-08-21T15:44:46;30.90;47.50
15483;DHT22;7843;50.330;7.312;2022-08-21T15:47:16;30.60;47.70
15483;DHT22;7843;50.330;7.312;2022-08-21T15:49:43;30.20;48.60
15483;DHT22;7843;50.330;7.312;2022-08-21T15:52:17;29.80;49.20
15483;DHT22;7843;50.330;7.312;2022-08-21T15:54:44;29.50;49.70
15483;DHT22;7843;50.330;7.312;2022-08-21T15:57:16;29.30;50.70
15483;DHT22;7843;50.330;7.312;2022-08-21T15:59:46;29.10;50.40
15483;DHT22;7843;50.330;7.312;2022-08-21T16:02:25;28.90;51.30
15483;DHT22;7843;50.330;7.312;2022-08-21T16:04:53;28.80;51.30
15483;DHT22;7843;50.330;7.312;2022-08-21T16:07:20;28.60;51.50
15483;DHT22;7843;50.330;7.312;2022-08-21T16:09:46;28.50;51.10
15483;DHT22;7843;50.330;7.312;2022-08-21T16:12:22;28.40;51.50
15483;DHT22;7843;50.330;7.312;2022-08-21T16:14:51;28.30;51.90
15483;DHT22;7843;50.330;7.312;2022-08-21T16:17:18;28.10;52.60
15483;DHT22;7843;50.330;7.312;2022-08-21T16:19:45;28.00;53.00
15483;DHT22;7843;50.330;7.312;2022-08-21T16:22:12;28.00;52.90
15483;DHT22;7843;50.330;7.312;2022-08-21T16:24:39;27.90;52.70
15483;DHT22;7843;50.330;7.312;2022-08-21T16:27:06;27.80;53.30
15483;DHT22;7843;50.330;7.312;2022-08-21T16:29:35;27.80;53.80
15483;DHT22;7843;50.330;7.312;2022-08-21T16:32:04;27.70;54.00
15483;DHT22;7843;50.330;7.312;2022-08-21T16:34:31;27.60;54.20
15483;DHT22;7843;50.330;7.312;2022-08-21T16:36:58;27.60;54.20
15483;DHT22;7843;50.330;7.312;2022-08-21T16:39:25;27.50;54.50
15483;DHT22;7843;50.330;7.312;2022-08-21T16:41:51;27.40;54.60
15483;DHT22;7843;50.330;7.312;2022-08-21T16:44:20;27.30;54.80
15483;DHT22;7843;50.330;7.312;2022-08-21T16:46:48;27.20;54.90
15483;DHT22;7843;50.330;7.312;2022-08-21T16:49:15;27.20;55.30
15483;DHT22;7843;50.330;7.312;2022-08-21T16:51:42;27.10;55.40
15483;DHT22;7843;50.330;7.312;2022-08-21T16:54:09;26.90;55.80
15483;DHT22;7843;50.330;7.312;2022-08-21T16:56:36;26.80;56.30
15483;DHT22;7843;50.330;7.312;2022-08-21T16:59:05;26.80;56.30
15483;DHT22;7843;50.330;7.312;2022-08-21T17:01:33;26.70;56.60
15483;DHT22;7843;50.330;7.312;2022-08-21T17:04:00;26.70;57.20
15483;DHT22;7843;50.330;7.312;2022-08-21T17:06:27;26.60;57.10
15483;DHT22;7843;50.330;7.312;2022-08-21T17:08:57;26.50;57.30
15483;DHT22;7843;50.330;7.312;2022-08-21T17:13:57;26.30;58.00
15483;DHT22;7843;50.330;7.312;2022-08-21T17:16:25;26.30;58.20
15483;DHT22;7843;50.330;7.312;2022-08-21T17:18:52;26.20;58.40